Time;durP1;ratioP1;P1;durP2;ratioP2;P2;SDS_P1;SDS_P2;PMS_P1;PMS_P2;Temp;Humidity;BMP_temperature;BMP_pressure;BME280_temperature;BME280_humidity;BME280_pressure;Samples;Min_cycle;Max_cycle;Signal;HPM_P1;HPM_P2
2022/10/06 00:01:21;;;;;;;8.43;1.58;;;14.30;99.90;;;;;;6004694;23;20318;-91
2022/10/06 00:03:47;;;;;;;5.80;1.50;;;14.30;99.90;;;;;;6003488;23;20011;-91
2022/10/06 00:06:15;;;;;;;5.60;1.33;;;14.30;99.90;;;;;;6002698;23;20510;-91
2022/10/06 00:08:42;;;;;;;6.72;1.25;;;14.30;99.90;;;;;;6003633;23;20020;-90
2022/10/06 00:11:11;;;;;;;6.38;1.38;;;14.20;99.90;;;;;;6026047;23;20015;-90
2022/10/06 00:13:37;;;;;;;7.78;1.30;;;14.20;99.90;;;;;;6003722;23;20350;-91
2022/10/06 00:16:13;;;;;;;6.00;1.33;;;14.20;99.90;;;;;;6002542;23;20098;-90
2022/10/06 00:18:39;;;;;;;6.60;1.35;;;14.20;99.90;;;;;;6002292;23;20016;-90
2022/10/06 00:21:05;;;;;;;5.90;1.23;;;14.10;99.90;;;;;;6002552;23;20019;-90
2022/10/06 00:23:31;;;;;;;7.32;1.70;;;14.10;99.90;;;;;;5979676;23;20019;-90
2022/10/06 00:25:57;;;;;;;6.18;1.30;;;14.00;99.90;;;;;;6002110;23;20038;-91
2022/10/06 00:28:23;;;;;;;7.30;1.40;;;14.00;99.90;;;;;;6002774;23;20031;-90
2022/10/06 00:30:52;;;;;;;6.75;1.40;;;14.10;99.90;;;;;;6026522;23;20011;-91
2022/10/06 00:33:18;;;;;;;7.45;1.63;;;13.90;99.90;;;;;;6004426;23;20119;-90
2022/10/06 00:35:44;;;;;;;4.60;1.10;;;13.90;99.90;;;;;;6003337;23;20027;-91
2022/10/06 00:38:11;;;;;;;8.13;1.48;;;13.90;99.90;;;;;;6002501;23;20008;-90
2022/10/06 00:40:44;;;;;;;8.38;1.67;;;13.90;99.90;;;;;;6002143;23;20450;-91
2022/10/06 00:43:40;;;;;;;6.78;1.20;;;13.80;99.90;;;;;;6004838;23;20230;-91
2022/10/06 00:46:08;;;;;;;5.70;1.42;;;13.80;99.90;;;;;;6004266;23;20012;-90
2022/10/06 00:48:34;;;;;;;5.88;1.40;;;13.80;99.90;;;;;;6004081;23;20070;-90
2022/10/06 00:51:00;;;;;;;8.18;1.50;;;13.80;99.90;;;;;;5979420;23;20068;-90
2022/10/06 00:53:27;;;;;;;5.88;1.40;;;13.70;99.90;;;;;;6002944;23;20509;-91
2022/10/06 00:55:53;;;;;;;7.22;1.55;;;13.70;99.90;;;;;;6001275;23;20095;-91
2022/10/06 00:58:20;;;;;;;5.15;1.27;;;13.70;99.90;;;;;;6026700;23;20054;-90
2022/10/06 01:00:48;;;;;;;8.68;1.60;;;13.60;99.90;;;;;;6004939;23;20031;-90
2022/10/06 01:03:20;;;;;;;7.28;1.70;;;13.60;99.90;;;;;;6002988;23;20020;-91
2022/10/06 01:05:48;;;;;;;10.27;1.60;;;13.60;99.90;;;;;;6005139;23;20026;-90
2022/10/06 01:08:15;;;;;;;9.23;1.58;;;13.50;99.90;;;;;;6001687;23;20447;-90
2022/10/06 01:10:41;;;;;;;7.70;1.75;;;13.50;99.90;;;;;;5999891;23;20020;-89
2022/10/06 01:13:09;;;;;;;7.18;1.88;;;13.50;99.90;;;;;;6003693;23;20051;-90
2022/10/06 01:15:39;;;;;;;8.68;1.85;;;13.50;99.90;;;;;;6003079;23;20008;-90
2022/10/06 01:18:12;;;;;;;7.78;1.75;;;13.40;99.90;;;;;;6005147;23;20019;-89
2022/10/06 01:20:43;;;;;;;9.52;1.70;;;13.40;99.90;;;;;;6007273;23;20022;-91
2022/10/06 01:23:09;;;;;;;;;;;13.40;99.90;;;;;;6004613;23;20156;-90
2022/10/06 01:25:35;;;;;;;9.15;1.55;;;13.30;99.90;;;;;;6027655;23;19963;-90
2022/10/06 01:28:05;;;;;;;9.32;1.60;;;13.30;99.90;;;;;;6004161;23;20016;-89
2022/10/06 01:30:36;;;;;;;10.80;1.42;;;13.30;99.90;;;;;;6006502;23;20071;-90
2022/10/06 01:33:02;;;;;;;9.57;1.80;;;13.30;99.90;;;;;;6004898;23;20019;-91
2022/10/06 01:35:27;;;;;;;9.45;1.80;;;13.30;99.90;;;;;;6003655;23;20020;-89
2022/10/06 01:37:53;;;;;;;9.73;1.90;;;13.30;99.90;;;;;;6003188;23;20046;-91
2022/10/06 01:40:20;;;;;;;10.15;1.98;;;13.20;99.90;;;;;;6004109;23;20016;-92
2022/10/06 01:42:45;;;;;;;9.68;1.70;;;13.20;99.90;;;;;;6006517;23;20015;-92
2022/10/06 01:45:11;;;;;;;9.32;1.65;;;13.20;99.90;;;;;;6005769;23;20016;-91
2022/10/06 01:47:37;;;;;;;7.70;1.77;;;13.20;99.90;;;;;;6004153;23;20327;-92
2022/10/06 01:50:05;;;;;;;7.85;1.85;;;13.10;99.90;;;;;;6005686;23;20023;-92
2022/10/06 01:52:31;;;;;;;7.18;1.80;;;13.10;99.90;;;;;;6006075;23;20008;-89
2022/10/06 01:54:57;;;;;;;9.73;2.00;;;13.10;99.90;;;;;;6003557;23;20512;-92
2022/10/06 01:57:22;;;;;;;8.20;1.77;;;13.10;99.90;;;;;;5982188;23;20110;-92
2022/10/06 01:59:48;;;;;;;6.55;1.60;;;13.00;99.90;;;;;;6005990;23;20055;-92
2022/10/06 02:02:14;;;;;;;8.90;1.98;;;13.00;99.90;;;;;;6004520;23;20016;-91
2022/10/06 02:04:39;;;;;;;6.93;1.40;;;13.00;99.90;;;;;;6004891;23;20011;-91
2022/10/06 02:07:05;;;;;;;9.85;1.70;;;12.90;99.90;;;;;;6005842;23;20219;-91
2022/10/06 02:09:31;;;;;;;9.02;2.10;;;12.90;99.90;;;;;;6005920;23;20464;-91
2022/10/06 02:11:57;;;;;;;7.65;1.52;;;12.90;99.90;;;;;;6004342;23;20047;-92
2022/10/06 02:14:22;;;;;;;8.27;1.60;;;12.80;99.90;;;;;;6005524;23;20019;-91
2022/10/06 02:16:49;;;;;;;10.85;1.95;;;12.90;99.90;;;;;;6003738;23;20090;-90
2022/10/06 02:19:15;;;;;;;10.00;2.25;;;12.90;99.90;;;;;;6006087;23;20016;-91
2022/10/06 02:21:40;;;;;;;9.52;1.70;;;12.80;99.90;;;;;;6010997;23;20008;-91
2022/10/06 02:24:06;;;;;;;10.18;1.75;;;12.90;99.90;;;;;;6010762;23;20060;-91
2022/10/06 02:26:32;;;;;;;9.98;1.80;;;12.80;99.90;;;;;;6005314;23;20347;-92
2022/10/06 02:28:58;;;;;;;11.35;1.75;;;12.80;99.90;;;;;;6003062;23;20019;-92
2022/10/06 02:31:24;;;;;;;9.07;2.08;;;12.80;99.90;;;;;;6004785;23;20050;-92
2022/10/06 02:33:50;;;;;;;7.72;1.75;;;12.80;99.90;;;;;;6004030;23;20024;-92
2022/10/06 02:36:16;;;;;;;11.23;1.88;;;12.70;99.90;;;;;;6004738;23;20023;-91
2022/10/06 02:38:43;;;;;;;8.75;2.08;;;12.70;99.90;;;;;;6007025;23;20019;-92
2022/10/06 02:41:09;;;;;;;9.45;1.73;;;12.70;99.90;;;;;;6007616;23;20023;-91
2022/10/06 02:43:36;;;;;;;12.20;1.85;;;12.70;99.90;;;;;;6005123;23;20074;-92
2022/10/06 02:46:12;;;;;;;10.65;2.08;;;12.60;99.90;;;;;;6004815;23;20016;-91
2022/10/06 02:48:39;;;;;;;10.52;1.70;;;12.60;99.90;;;;;;6028330;23;20026;-92
2022/10/06 02:51:08;;;;;;;8.38;2.00;;;12.60;99.90;;;;;;6006192;23;20016;-91
2022/10/06 02:53:35;;;;;;;10.27;1.95;;;12.70;99.90;;;;;;6007051;23;20127;-91
2022/10/06 02:56:04;;;;;;;10.30;1.77;;;12.60;99.90;;;;;;6004910;23;20016;-90
2022/10/06 02:58:30;;;;;;;11.50;2.03;;;12.60;99.90;;;;;;6029268;23;20019;-91
2022/10/06 03:01:07;;;;;;;11.43;2.03;;;12.50;99.90;;;;;;6005255;23;20290;-92
2022/10/06 03:03:34;;;;;;;9.23;2.10;;;12.50;99.90;;;;;;6005729;23;20023;-91
2022/10/06 03:06:21;;;;;;;10.30;2.15;;;12.50;99.90;;;;;;5980537;23;20088;-91
2022/10/06 03:08:55;;;;;;;10.82;2.08;;;12.50;99.90;;;;;;6005718;23;20448;-91
2022/10/06 03:11:23;;;;;;;10.35;2.10;;;12.50;99.90;;;;;;6004824;23;20011;-92
2022/10/06 03:13:50;;;;;;;9.93;1.85;;;12.40;99.90;;;;;;6007030;23;20011;-91
2022/10/06 03:16:26;;;;;;;10.75;1.98;;;12.40;99.90;;;;;;6006211;23;20020;-91
2022/10/06 03:18:54;;;;;;;10.88;2.08;;;12.40;99.90;;;;;;6007199;23;20016;-91
2022/10/06 03:21:25;;;;;;;9.98;2.30;;;12.40;99.90;;;;;;6004510;23;20020;-90
2022/10/06 03:23:52;;;;;;;8.63;2.00;;;12.40;99.90;;;;;;6005394;23;20020;-91
2022/10/06 03:26:21;;;;;;;9.38;1.95;;;12.30;99.90;;;;;;6004940;23;20151;-91
2022/10/06 03:28:47;;;;;;;10.43;1.92;;;12.40;99.90;;;;;;6004942;23;20016;-91
2022/10/06 03:31:14;;;;;;;9.55;1.85;;;12.40;99.90;;;;;;6005927;23;20019;-90
2022/10/06 03:33:40;;;;;;;10.75;1.98;;;12.40;99.90;;;;;;6007227;23;20020;-91
2022/10/06 03:36:12;;;;;;;11.05;2.38;;;12.40;99.90;;;;;;5981295;23;20030;-90
2022/10/06 03:38:38;;;;;;;11.05;1.90;;;12.30;99.90;;;;;;6004670;23;20016;-90
2022/10/06 03:41:12;;;;;;;11.57;2.30;;;12.30;99.90;;;;;;5981527;23;20327;-90
2022/10/06 03:43:39;;;;;;;12.30;2.30;;;12.30;99.90;;;;;;6005605;23;20043;-90
2022/10/06 03:46:06;;;;;;;12.82;2.63;;;12.30;99.90;;;;;;6006459;23;20016;-90
2022/10/06 03:48:33;;;;;;;10.77;1.95;;;12.20;99.90;;;;;;6002794;23;20020;-91
2022/10/06 03:51:10;;;;;;;9.45;2.10;;;12.20;99.90;;;;;;6003398;23;20023;-90
2022/10/06 03:53:36;;;;;;;12.10;2.08;;;12.20;99.90;;;;;;6003920;23;20016;-90
2022/10/06 03:56:10;;;;;;;11.02;1.95;;;12.20;99.90;;;;;;6028336;23;20008;-90
2022/10/06 03:58:39;;;;;;;10.48;2.28;;;12.20;99.90;;;;;;6004741;23;20098;-90
2022/10/06 04:01:11;;;;;;;9.45;2.05;;;12.10;99.90;;;;;;6003966;23;20019;-92
2022/10/06 04:03:37;;;;;;;11.35;2.10;;;12.10;99.90;;;;;;6004258;23;20152;-91
2022/10/06 04:06:06;;;;;;;12.10;2.30;;;12.10;99.90;;;;;;6006030;23;20138;-91
2022/10/06 04:08:33;;;;;;;10.15;2.10;;;12.00;99.90;;;;;;6006771;23;20012;-92
2022/10/06 04:11:14;;;;;;;11.40;2.60;;;12.00;99.90;;;;;;6004464;23;20016;-91
2022/10/06 04:13:41;;;;;;;11.00;2.00;;;12.00;99.90;;;;;;6005683;23;20015;-91
2022/10/06 04:16:21;;;;;;;12.15;2.35;;;11.90;99.90;;;;;;6006140;23;20016;-92
2022/10/06 04:18:55;;;;;;;10.00;2.00;;;11.90;99.90;;;;;;6003790;23;20019;-91
2022/10/06 04:21:23;;;;;;;11.40;1.95;;;11.80;99.90;;;;;;6003886;23;20371;-90
2022/10/06 04:23:50;;;;;;;12.27;2.00;;;11.80;99.90;;;;;;6004201;23;20068;-91
2022/10/06 04:26:19;;;;;;;8.95;1.67;;;11.80;99.90;;;;;;6004941;23;20031;-90
2022/10/06 04:28:45;;;;;;;10.32;1.98;;;11.80;99.90;;;;;;6005013;23;20020;-91
2022/10/06 04:31:21;;;;;;;10.95;1.95;;;11.70;99.90;;;;;;6004494;23;20062;-89
2022/10/06 04:33:49;;;;;;;11.45;2.38;;;11.70;99.90;;;;;;6004482;23;20026;-91
2022/10/06 04:36:21;;;;;;;10.98;2.08;;;11.70;99.90;;;;;;6006388;23;20012;-91
2022/10/06 04:38:57;;;;;;;10.30;2.17;;;11.60;99.90;;;;;;6031837;23;20095;-90
2022/10/06 04:41:46;;;;;;;12.85;2.45;;;11.70;99.90;;;;;;6010214;23;20130;-90
2022/10/06 04:44:11;;;;;;;10.40;2.00;;;11.60;99.90;;;;;;6014123;23;20095;-92
2022/10/06 04:46:37;;;;;;;9.88;2.13;;;11.60;99.90;;;;;;6013236;23;20099;-90
2022/10/06 04:49:03;;;;;;;11.23;2.20;;;11.60;99.90;;;;;;6011200;23;20019;-92
2022/10/06 04:51:29;;;;;;;9.48;2.03;;;11.60;99.90;;;;;;6012384;23;20022;-91
2022/10/06 04:53:54;;;;;;;9.32;1.90;;;11.60;99.90;;;;;;6012783;23;20016;-89
2022/10/06 04:56:26;;;;;;;11.90;2.08;;;11.50;99.90;;;;;;6037731;23;20059;-91
2022/10/06 04:58:53;;;;;;;8.60;2.10;;;11.50;99.90;;;;;;6016768;23;20020;-91
2022/10/06 05:01:34;;;;;;;12.00;2.33;;;11.50;99.90;;;;;;6019816;23;20020;-91
2022/10/06 05:04:01;;;;;;;10.75;2.30;;;11.50;99.90;;;;;;6017046;23;20391;-91
2022/10/06 05:06:33;;;;;;;10.98;2.22;;;11.50;99.90;;;;;;6007385;23;20019;-90
2022/10/06 05:08:59;;;;;;;;;;;11.50;99.90;;;;;;6008968;23;20026;-91
2022/10/06 05:11:26;;;;;;;14.80;2.85;;;11.30;99.90;;;;;;6030560;23;19920;-90
2022/10/06 05:13:53;;;;;;;9.98;2.40;;;11.40;99.90;;;;;;6006208;23;20024;-91
2022/10/06 05:16:20;;;;;;;10.25;2.42;;;11.40;99.90;;;;;;6005449;23;20019;-90
2022/10/06 05:18:46;;;;;;;10.07;2.50;;;11.40;99.90;;;;;;6026788;23;20027;-93
2022/10/06 05:21:12;;;;;;;12.38;2.33;;;11.40;99.90;;;;;;6005973;23;20011;-90
2022/10/06 05:23:40;;;;;;;10.65;2.60;;;11.30;99.90;;;;;;6007760;23;20024;-92
2022/10/06 05:26:07;;;;;;;13.07;2.40;;;11.30;99.90;;;;;;5983246;23;20047;-89
2022/10/06 05:28:33;;;;;;;12.60;2.42;;;11.30;99.90;;;;;;6005624;23;20026;-90
2022/10/06 05:31:03;;;;;;;11.40;2.45;;;11.30;99.90;;;;;;6007219;23;20092;-90
2022/10/06 05:33:30;;;;;;;15.05;2.83;;;11.20;99.90;;;;;;6007741;23;20015;-89
2022/10/06 05:36:05;;;;;;;13.88;2.40;;;11.20;99.90;;;;;;6006298;23;20449;-90
2022/10/06 05:38:32;;;;;;;8.98;1.85;;;11.20;99.90;;;;;;6008119;23;20012;-88
2022/10/06 05:41:06;;;;;;;10.73;2.40;;;11.10;99.90;;;;;;6007132;23;20027;-89
2022/10/06 05:43:32;;;;;;;11.75;2.33;;;11.10;99.90;;;;;;6004890;23;20020;-89
2022/10/06 05:46:01;;;;;;;10.77;2.40;;;11.10;99.90;;;;;;6005015;23;20018;-90
2022/10/06 05:48:27;;;;;;;11.38;2.42;;;11.10;99.90;;;;;;6004267;23;20026;-89
2022/10/06 05:51:00;;;;;;;12.32;2.67;;;11.10;99.90;;;;;;6004789;23;20008;-88
2022/10/06 05:53:30;;;;;;;10.10;2.33;;;11.10;99.90;;;;;;6006867;23;20064;-89
2022/10/06 05:56:23;;;;;;;11.73;2.50;;;11.20;99.90;;;;;;6003825;23;20035;-88
2022/10/06 05:58:50;;;;;;;9.15;2.03;;;11.10;99.90;;;;;;6000906;23;20047;-89
2022/10/06 06:01:23;;;;;;;11.05;2.60;;;11.10;99.90;;;;;;6005928;23;20350;-90
2022/10/06 06:03:50;;;;;;;9.43;2.38;;;11.10;99.90;;;;;;6005968;23;20078;-90
2022/10/06 06:06:17;;;;;;;8.43;2.45;;;11.20;99.90;;;;;;6006324;23;20015;-89
2022/10/06 06:08:43;;;;;;;11.13;2.60;;;11.10;99.90;;;;;;5982432;23;20020;-89
2022/10/06 06:11:09;;;;;;;15.32;3.63;;;11.20;99.90;;;;;;6007396;23;20342;-89
2022/10/06 06:13:35;;;;;;;13.80;2.78;;;11.30;99.90;;;;;;6006316;23;20019;-89
2022/10/06 06:16:03;;;;;;;12.40;2.75;;;11.10;99.90;;;;;;6028499;23;20091;-90
2022/10/06 06:18:34;;;;;;;13.07;2.67;;;11.20;99.90;;;;;;6004659;23;20024;-90
2022/10/06 06:21:06;;;;;;;11.70;2.50;;;11.20;99.90;;;;;;6005241;23;20020;-90
2022/10/06 06:23:39;;;;;;;11.35;2.45;;;11.20;99.90;;;;;;6003905;23;20015;-89
2022/10/06 06:26:10;;;;;;;12.27;2.53;;;11.20;99.90;;;;;;5980179;23;20015;-89
2022/10/06 06:28:36;;;;;;;;;;;11.20;99.90;;;;;;6001729;23;20027;-89
2022/10/06 06:31:10;;;;;;;12.88;2.67;;;11.10;99.90;;;;;;5980260;23;20321;-89
2022/10/06 06:33:38;;;;;;;11.77;2.50;;;11.20;99.90;;;;;;6003585;23;20039;-90
2022/10/06 06:36:14;;;;;;;13.60;2.92;;;11.30;99.90;;;;;;6003962;23;20023;-89
2022/10/06 06:38:40;;;;;;;12.00;2.40;;;11.30;99.90;;;;;;6006442;23;20015;-92
2022/10/06 06:41:23;;;;;;;12.93;2.92;;;11.30;99.90;;;;;;6005213;23;20855;-91
2022/10/06 06:43:51;;;;;;;10.90;2.17;;;11.40;99.90;;;;;;6028845;23;20011;-90
2022/10/06 06:46:19;;;;;;;11.95;2.67;;;11.40;99.90;;;;;;6006083;23;20930;-92
2022/10/06 06:48:45;;;;;;;12.30;2.75;;;11.40;99.90;;;;;;6007782;23;20509;-92
2022/10/06 06:51:12;;;;;;;11.82;2.53;;;11.50;99.90;;;;;;5981699;23;20016;-89
2022/10/06 06:53:39;;;;;;;13.00;2.65;;;11.50;99.90;;;;;;6003371;23;20023;-91
2022/10/06 06:56:07;;;;;;;11.15;2.40;;;11.60;99.90;;;;;;6003161;23;20027;-88
2022/10/06 06:58:33;;;;;;;12.48;2.45;;;11.60;99.90;;;;;;6001963;23;20055;-89
2022/10/06 07:01:12;;;;;;;11.30;2.60;;;11.70;99.90;;;;;;6002467;23;20083;-88
2022/10/06 07:03:44;;;;;;;12.13;2.58;;;11.70;99.90;;;;;;6005982;23;20028;-91
2022/10/06 07:06:11;;;;;;;12.15;2.45;;;11.70;99.90;;;;;;6009571;23;20011;-91
2022/10/06 07:08:42;;;;;;;13.15;2.67;;;11.80;99.90;;;;;;6008627;23;20016;-93
2022/10/06 07:11:16;;;;;;;11.15;2.83;;;11.80;99.90;;;;;;6031646;23;20527;-90
2022/10/06 07:13:42;;;;;;;13.38;2.85;;;11.80;99.90;;;;;;6005258;23;20023;-92
2022/10/06 07:25:06;;;;;;;14.20;3.25;;;12.10;99.90;;;;;;6004534;23;20051;-91
2022/10/06 07:27:37;;;;;;;9.82;2.35;;;12.10;99.90;;;;;;6008249;23;20330;-90
2022/10/06 07:30:03;;;;;;;;;;;12.10;99.90;;;;;;6031734;23;20078;-93
2022/10/06 07:32:31;;;;;;;11.98;2.28;;;12.10;99.90;;;;;;6028532;23;19918;-92
2022/10/06 07:34:57;;;;;;;10.75;2.40;;;12.20;99.90;;;;;;6029321;23;20054;-91
2022/10/06 07:37:24;;;;;;;12.90;2.85;;;12.40;99.90;;;;;;6007523;23;20356;-92
2022/10/06 07:39:49;;;;;;;11.55;2.28;;;12.30;99.90;;;;;;6031056;23;20047;-92
2022/10/06 07:42:17;;;;;;;10.40;2.85;;;12.40;99.90;;;;;;6005436;23;20054;-93
2022/10/06 07:45:36;;;;;;;12.65;2.75;;;12.40;99.90;;;;;;6004693;23;20024;-91
2022/10/06 07:47:36;;;;;;;12.43;2.63;;;12.50;99.90;;;;;;6006231;23;20023;-92
2022/10/06 07:50:04;;;;;;;12.60;2.42;;;12.70;99.90;;;;;;6005675;23;20019;-92
2022/10/06 07:52:29;;;;;;;11.48;2.50;;;12.60;99.90;;;;;;5983508;23;20020;-91
2022/10/06 07:54:57;;;;;;;14.70;2.55;;;12.60;99.90;;;;;;6006815;23;20020;-95
2022/10/06 07:57:23;;;;;;;12.73;2.90;;;12.70;99.90;;;;;;6012671;23;20018;-92
2022/10/06 07:59:49;;;;;;;10.90;2.50;;;12.70;99.90;;;;;;6015511;23;20052;-94
2022/10/06 08:02:16;;;;;;;11.15;2.83;;;12.80;99.90;;;;;;6007317;23;20090;-92
2022/10/06 08:04:42;;;;;;;12.45;2.22;;;12.90;99.90;;;;;;6010077;23;20279;-93
2022/10/06 08:07:09;;;;;;;12.18;2.38;;;12.90;99.90;;;;;;6006220;23;20016;-93
2022/10/06 08:09:35;;;;;;;12.35;2.38;;;12.90;99.90;;;;;;6030243;23;20094;-92
2022/10/06 08:12:31;;;;;;;10.30;2.30;;;13.00;99.90;;;;;;6010994;23;20006;-94
2022/10/06 08:14:46;;;;;;;12.65;2.40;;;13.00;99.90;;;;;;6006483;23;20038;-92
2022/10/06 08:17:12;;;;;;;10.55;2.33;;;13.10;99.90;;;;;;6007838;23;20015;-92
2022/10/06 08:19:38;;;;;;;10.98;2.20;;;13.20;99.90;;;;;;6007567;23;20019;-94
2022/10/06 08:22:04;;;;;;;11.05;2.63;;;13.30;99.90;;;;;;6007117;23;20075;-92
2022/10/06 08:24:30;;;;;;;14.02;2.20;;;13.30;99.90;;;;;;6006282;23;20015;-93
2022/10/06 08:26:56;;;;;;;13.27;2.53;;;13.20;99.90;;;;;;6030901;23;20023;-92
2022/10/06 08:29:21;;;;;;;12.90;2.63;;;13.40;99.90;;;;;;5984074;23;20323;-92
2022/10/06 08:31:50;;;;;;;135.90;18.48;;;13.40;99.90;;;;;;6008935;23;20091;-91
2022/10/06 08:34:15;;;;;;;9.95;2.35;;;13.50;99.90;;;;;;5985281;23;20033;-92
2022/10/06 08:36:42;;;;;;;14.68;2.53;;;13.50;99.90;;;;;;6009944;23;20470;-90
2022/10/06 08:39:08;;;;;;;11.60;2.53;;;13.60;99.90;;;;;;6009221;23;20043;-94
2022/10/06 08:41:49;;;;;;;11.25;2.42;;;13.70;99.90;;;;;;6029282;23;20347;-92
2022/10/06 08:45:01;;;;;;;9.63;2.00;;;13.70;99.90;;;;;;5988191;23;20035;-96
2022/10/06 08:47:32;;;;;;;10.65;2.28;;;13.70;99.90;;;;;;5901800;24;20057;-89
2022/10/06 08:49:59;;;;;;;13.90;2.78;;;13.80;99.90;;;;;;5922171;24;20096;-92
2022/10/06 08:52:35;;;;;;;10.85;2.63;;;13.80;99.90;;;;;;5898145;24;20017;-91
2022/10/06 08:55:31;;;;;;;13.45;2.42;;;13.80;99.90;;;;;;5919454;24;20105;-91
2022/10/06 08:58:34;;;;;;;12.10;2.53;;;13.90;99.90;;;;;;5896686;24;20025;-90
2022/10/06 09:01:08;;;;;;;12.60;2.20;;;13.90;99.90;;;;;;5919846;24;20036;-92
2022/10/06 09:03:36;;;;;;;13.88;2.80;;;13.90;99.90;;;;;;5924348;24;20021;-93
2022/10/06 09:06:30;;;;;;;11.85;2.40;;;14.00;99.90;;;;;;5929505;24;20036;-93
2022/10/06 09:09:09;;;;;;;11.57;2.53;;;14.10;99.90;;;;;;5906112;24;20029;-90
2022/10/06 09:11:40;;;;;;;10.82;2.28;;;14.10;99.90;;;;;;5927470;24;20082;-94
2022/10/06 09:14:27;;;;;;;12.50;2.30;;;14.10;99.90;;;;;;5926139;24;20351;-89
2022/10/06 09:16:59;;;;;;;12.32;2.70;;;14.20;99.90;;;;;;5906857;23;20032;-88
2022/10/06 09:19:40;;;;;;;11.02;2.72;;;14.20;99.90;;;;;;6018012;23;20019;-95
2022/10/06 09:22:15;;;;;;;11.55;2.22;;;14.20;99.90;;;;;;6016684;23;20333;-95
2022/10/06 09:24:41;;;;;;;12.57;2.50;;;14.30;99.90;;;;;;6011927;23;20376;-86
2022/10/06 09:27:18;;;;;;;9.90;2.50;;;14.40;99.90;;;;;;6010802;23;20406;-91
2022/10/06 09:29:47;;;;;;;11.38;2.42;;;14.40;99.90;;;;;;5984716;23;20016;-92
2022/10/06 09:32:13;;;;;;;9.25;2.22;;;14.50;99.90;;;;;;6031705;23;20015;-92
2022/10/06 09:34:41;;;;;;;11.50;2.30;;;14.50;99.90;;;;;;6006370;23;20199;-92
2022/10/06 09:37:09;;;;;;;10.55;2.45;;;14.50;99.90;;;;;;6004207;23;20031;-93
2022/10/06 09:39:48;;;;;;;11.50;2.20;;;14.60;99.90;;;;;;6034630;23;20034;-94
2022/10/06 09:42:19;;;;;;;10.93;2.00;;;14.70;99.90;;;;;;6009817;23;20047;-94
2022/10/06 09:45:00;;;;;;;9.02;2.00;;;14.70;99.90;;;;;;6007914;23;20091;-96
2022/10/06 09:47:34;;;;;;;12.63;2.65;;;14.80;99.90;;;;;;6033352;23;20473;-96
2022/10/06 09:50:16;;;;;;;10.55;2.08;;;14.80;99.90;;;;;;5984485;23;20087;-94
2022/10/06 09:53:00;;;;;;;11.55;2.28;;;14.80;99.90;;;;;;6011300;23;20054;-93
2022/10/06 09:55:50;;;;;;;9.43;2.00;;;14.90;99.90;;;;;;6013968;23;20016;-95
2022/10/06 09:58:22;;;;;;;9.77;1.95;;;14.90;99.90;;;;;;6011414;23;20035;-96
2022/10/06 10:01:20;;;;;;;9.80;2.92;;;14.90;99.90;;;;;;6014934;23;20023;-95
2022/10/06 10:03:50;;;;;;;12.15;2.58;;;14.90;99.90;;;;;;5949407;23;20020;-92
2022/10/06 10:06:42;;;;;;;9.43;2.22;;;15.00;99.90;;;;;;6012044;23;20404;-91
2022/10/06 10:09:23;;;;;;;10.07;1.92;;;15.00;99.90;;;;;;6004145;23;20020;-92
2022/10/06 10:15:26;;;;;;;11.20;1.98;;;15.00;99.90;;;;;;6044201;23;20019;-92
2022/10/06 10:17:55;;;;;;;12.90;2.42;;;15.20;99.90;;;;;;5996020;23;20027;-94
2022/10/06 10:20:23;;;;;;;11.13;2.13;;;15.40;99.90;;;;;;6015174;23;20020;-90
2022/10/06 10:22:51;;;;;;;9.45;2.38;;;15.50;99.90;;;;;;6022086;23;20023;-94
2022/10/06 10:25:39;;;;;;;9.63;2.10;;;15.60;99.90;;;;;;6017984;23;20027;-93
2022/10/06 10:28:16;;;;;;;9.60;1.80;;;15.60;99.90;;;;;;6016032;23;20195;-96
2022/10/06 10:31:11;;;;;;;10.45;1.92;;;15.60;99.90;;;;;;6019065;23;20023;-94
2022/10/06 10:33:43;;;;;;;12.07;2.40;;;15.60;99.90;;;;;;6035404;23;20043;-95
2022/10/06 10:36:16;;;;;;;11.27;2.40;;;15.50;99.90;;;;;;6022276;23;20261;-96
2022/10/06 10:38:45;;;;;;;9.82;2.15;;;15.60;99.90;;;;;;6012820;23;20020;-92
2022/10/06 10:41:21;;;;;;;10.27;1.80;;;15.60;99.90;;;;;;6033029;23;20338;-96
2022/10/06 10:43:52;;;;;;;11.85;2.40;;;15.60;99.90;;;;;;5989023;23;20050;-93
2022/10/06 10:46:29;;;;;;;9.98;2.60;;;15.40;99.90;;;;;;6013319;23;20098;-96
2022/10/06 10:49:14;;;;;;;10.07;2.10;;;15.40;99.90;;;;;;6008854;23;20049;-95
2022/10/06 10:51:50;;;;;;;9.02;2.03;;;15.40;99.90;;;;;;6006635;23;20012;-94
2022/10/06 10:54:32;;;;;;;9.95;1.77;;;15.40;99.90;;;;;;6008808;23;20453;-95
2022/10/06 10:56:58;;;;;;;9.45;2.03;;;15.40;99.90;;;;;;6008707;23;20034;-90
2022/10/06 10:59:34;;;;;;;9.23;1.92;;;15.40;99.90;;;;;;6009859;23;20020;-96
2022/10/06 11:02:19;;;;;;;9.95;1.88;;;15.50;99.90;;;;;;6010227;23;20067;-94
2022/10/06 11:04:49;;;;;;;10.20;2.13;;;15.40;99.90;;;;;;6011076;23;20055;-91
2022/10/06 11:07:30;;;;;;;8.00;1.90;;;15.40;99.90;;;;;;6007041;23;20020;-90
2022/10/06 11:09:55;;;;;;;8.93;1.98;;;15.30;99.90;;;;;;6005816;23;20019;-94
2022/10/06 11:12:32;;;;;;;10.10;1.92;;;15.50;99.90;;;;;;5983023;23;20120;-90
2022/10/06 11:15:02;;;;;;;11.75;2.25;;;15.50;99.90;;;;;;6006597;23;20068;-91
2022/10/06 11:17:43;;;;;;;10.02;2.10;;;15.50;99.90;;;;;;6010647;23;20351;-94
2022/10/06 11:20:18;;;;;;;;;;;15.60;99.90;;;;;;6014949;23;20019;-93
2022/10/06 11:22:58;;;;;;;11.18;2.25;;;15.60;99.90;;;;;;5986842;23;19921;-90
2022/10/06 11:26:08;;;;;;;11.73;1.90;;;15.60;99.90;;;;;;6009352;23;20011;-91
2022/10/06 11:29:01;;;;;;;11.20;1.85;;;15.70;99.90;;;;;;5954847;23;20386;-93
2022/10/06 11:31:39;;;;;;;7.95;1.75;;;15.70;99.90;;;;;;6012870;23;20015;-94
2022/10/06 11:34:05;;;;;;;9.25;1.95;;;15.70;99.90;;;;;;6010492;23;20047;-96
2022/10/06 11:36:48;;;;;;;8.65;1.83;;;15.70;99.90;;;;;;6025636;23;20010;-96
2022/10/06 11:39:54;;;;;;;9.18;1.98;;;15.80;99.90;;;;;;6001061;23;20024;-96
2022/10/06 11:42:39;;;;;;;7.40;1.35;;;15.90;99.90;;;;;;5983533;24;20024;-96
2022/10/06 11:45:15;;;;;;;8.65;1.58;;;16.00;99.90;;;;;;5992702;23;20020;-95
2022/10/06 11:48:19;;;;;;;8.30;1.45;;;16.00;99.90;;;;;;5992735;24;20020;-96
2022/10/06 11:50:48;;;;;;;10.40;1.70;;;16.00;99.90;;;;;;5985271;24;20004;-96
2022/10/06 11:53:33;;;;;;;7.97;1.50;;;15.90;99.90;;;;;;5984694;24;20057;-94
2022/10/06 11:56:22;;;;;;;10.00;2.33;;;15.90;99.90;;;;;;5980628;24;20017;-90
2022/10/06 11:58:54;;;;;;;9.30;1.40;;;16.00;99.90;;;;;;5978016;24;20028;-94
2022/10/06 12:01:42;;;;;;;10.43;1.90;;;15.90;99.90;;;;;;5978833;24;20027;-90
2022/10/06 12:04:08;;;;;;;8.23;2.05;;;15.90;99.90;;;;;;5979024;24;20045;-92
2022/10/06 12:06:45;;;;;;;7.18;1.33;;;15.90;99.90;;;;;;5977179;24;20027;-89
2022/10/06 12:09:32;;;;;;;7.10;1.45;;;16.00;99.90;;;;;;5977321;24;20413;-92
2022/10/06 12:12:23;;;;;;;7.38;1.25;;;16.00;99.90;;;;;;5978310;24;20016;-94
2022/10/06 12:15:17;;;;;;;9.20;1.50;;;16.00;99.90;;;;;;5977736;23;20016;-94
2022/10/06 12:17:54;;;;;;;7.60;1.50;;;16.00;99.90;;;;;;5979784;23;20020;-96
2022/10/06 12:20:40;;;;;;;8.20;1.17;;;16.10;99.90;;;;;;5980899;23;20422;-92
2022/10/06 12:23:15;;;;;;;7.38;1.40;;;16.00;99.90;;;;;;5979189;24;20020;-89
2022/10/06 12:25:54;;;;;;;11.82;1.60;;;16.00;99.90;;;;;;5979891;24;20083;-91
2022/10/06 12:28:47;;;;;;;8.30;1.50;;;16.00;99.90;;;;;;5978955;23;20027;-91
2022/10/06 12:31:39;;;;;;;5.95;1.52;;;16.00;99.90;;;;;;5979049;23;20377;-90
2022/10/06 12:34:36;;;;;;;7.07;1.20;;;16.10;99.90;;;;;;5977372;23;20016;-91
2022/10/06 12:37:33;;;;;;;7.72;1.23;;;16.00;99.90;;;;;;5977679;24;20012;-91
2022/10/06 12:40:36;;;;;;;6.65;1.25;;;16.00;99.90;;;;;;5977435;23;20068;-90
2022/10/06 12:43:16;;;;;;;7.25;1.33;;;16.00;99.90;;;;;;5952982;24;20016;-91
2022/10/06 12:46:06;;;;;;;6.80;1.30;;;16.00;99.90;;;;;;5974995;24;20027;-90
2022/10/06 12:48:50;;;;;;;7.47;1.55;;;16.00;99.90;;;;;;5976626;23;20043;-92
2022/10/06 12:51:25;;;;;;;8.00;1.20;;;16.00;99.90;;;;;;5976513;24;20486;-89
2022/10/06 12:54:03;;;;;;;8.20;1.42;;;16.10;99.90;;;;;;5976450;23;20020;-88
2022/10/06 12:56:33;;;;;;;5.63;1.20;;;16.10;99.90;;;;;;5978321;24;20020;-91
2022/10/06 12:59:18;;;;;;;7.70;1.30;;;16.10;99.90;;;;;;5975459;24;20091;-91
2022/10/06 13:01:45;;;;;;;6.78;1.35;;;16.10;99.90;;;;;;5976749;24;20067;-91
2022/10/06 13:04:28;;;;;;;6.25;1.23;;;16.30;99.90;;;;;;5975643;24;20023;-91
2022/10/06 13:06:54;;;;;;;6.43;1.10;;;16.30;99.90;;;;;;5953831;24;20068;-92
2022/10/06 13:09:20;;;;;;;7.13;1.10;;;16.20;99.90;;;;;;5976188;24;20447;-90
2022/10/06 13:11:48;;;;;;;7.20;1.30;;;16.30;99.90;;;;;;5952977;24;20027;-91
2022/10/06 13:14:14;;;;;;;8.38;1.60;;;16.30;99.90;;;;;;5954741;24;20031;-89
2022/10/06 13:16:45;;;;;;;8.77;1.80;;;16.20;99.90;;;;;;5977952;24;20123;-89
2022/10/06 13:19:27;;;;;;;6.35;1.27;;;16.20;99.90;;;;;;5953766;24;20507;-87
2022/10/06 13:21:53;;;;;;;8.15;1.23;;;16.30;99.90;;;;;;5976774;24;20016;-91